createdAt,value
2022-08-25T00:01:35.136Z,21.40
2022-08-25T00:04:25.321Z,21.40
2022-08-25T00:07:18.547Z,21.40
2022-08-25T00:10:10.945Z,21.40
2022-08-25T00:13:00.851Z,21.40
2022-08-25T00:15:50.262Z,21.40
2022-08-25T00:18:40.438Z,21.30
2022-08-25T00:21:32.020Z,21.30
2022-08-25T00:24:23.920Z,21.20
2022-08-25T00:27:14.951Z,21.30
2022-08-25T00:30:06.046Z,21.20
2022-08-25T00:32:57.555Z,21.20
2022-08-25T00:35:47.116Z,21.20
2022-08-25T00:38:38.337Z,21.20
2022-08-25T00:41:28.323Z,21.20
2022-08-25T00:44:20.476Z,21.10
2022-08-25T00:47:10.156Z,21.10
2022-08-25T00:50:02.834Z,21.10
2022-08-25T00:52:56.524Z,21.00
2022-08-25T00:55:45.972Z,21.10
2022-08-25T00:58:37.273Z,21.00
2022-08-25T01:01:28.792Z,21.00
2022-08-25T01:04:18.884Z,20.90
2022-08-25T01:07:08.372Z,21.00
2022-08-25T01:10:09.983Z,20.90
2022-08-25T01:13:05.689Z,20.90
2022-08-25T01:15:58.045Z,20.90
2022-08-25T01:18:52.542Z,20.90
2022-08-25T01:21:47.165Z,20.80
2022-08-25T01:24:43.893Z,20.80
2022-08-25T01:27:33.293Z,20.80
2022-08-25T01:30:23.009Z,20.80
2022-08-25T01:33:13.461Z,20.80
2022-08-25T01:36:03.173Z,20.70
2022-08-25T01:38:53.967Z,20.70
2022-08-25T01:42:16.301Z,20.70
2022-08-25T01:45:06.964Z,20.70
2022-08-25T01:47:56.842Z,20.70
2022-08-25T01:50:46.196Z,20.70
2022-08-25T01:53:35.686Z,20.70
2022-08-25T01:56:26.463Z,20.70
2022-08-25T01:59:23.794Z,20.60
2022-08-25T02:02:14.044Z,20.60
2022-08-25T02:05:03.516Z,20.60
2022-08-25T02:07:54.567Z,20.60
2022-08-25T02:10:43.918Z,20.60
2022-08-25T02:13:34.854Z,20.50
2022-08-25T02:16:29.378Z,20.60
2022-08-25T02:19:21.282Z,20.60
2022-08-25T02:22:10.777Z,20.50
2022-08-25T02:25:00.312Z,20.50
2022-08-25T02:27:49.670Z,20.50
2022-08-25T02:30:43.541Z,20.50
2022-08-25T02:33:33.147Z,20.50
2022-08-25T02:36:23.299Z,20.40
2022-08-25T02:39:13.983Z,20.50
2022-08-25T02:42:03.441Z,20.40
2022-08-25T02:44:53.749Z,20.40
2022-08-25T02:47:44.882Z,20.40
2022-08-25T02:50:34.263Z,20.40
2022-08-25T02:53:23.750Z,20.30
2022-08-25T02:56:15.442Z,20.30
2022-08-25T02:59:05.947Z,20.30
2022-08-25T03:01:55.505Z,20.20
2022-08-25T03:04:46.421Z,20.20
2022-08-25T03:07:36.915Z,20.20
2022-08-25T03:10:26.556Z,20.20
2022-08-25T03:13:16.887Z,20.20
2022-08-25T03:16:11.219Z,20.10
2022-08-25T03:19:02.229Z,20.10
2022-08-25T03:21:56.263Z,20.10
2022-08-25T03:24:45.647Z,20.10
2022-08-25T03:27:34.877Z,20.10
2022-08-25T03:30:24.385Z,20.10
2022-08-25T03:33:13.880Z,20.00
2022-08-25T03:36:03.734Z,20.00
2022-08-25T03:38:55.147Z,20.00
2022-08-25T03:41:44.601Z,20.00
2022-08-25T03:44:33.967Z,20.00
2022-08-25T03:47:25.613Z,20.00
2022-08-25T03:50:16.074Z,20.00
2022-08-25T03:53:05.586Z,20.00
2022-08-25T03:55:57.709Z,19.90
2022-08-25T03:58:47.936Z,19.90
2022-08-25T04:01:38.004Z,19.90
2022-08-25T04:04:27.469Z,19.90
2022-08-25T04:07:16.849Z,19.90
2022-08-25T04:10:07.484Z,19.90
2022-08-25T04:12:58.529Z,19.90
2022-08-25T04:15:49.177Z,19.90
2022-08-25T04:18:38.647Z,19.90
2022-08-25T04:21:28.505Z,19.90
2022-08-25T04:24:18.013Z,19.90
2022-08-25T04:27:07.461Z,19.90
2022-08-25T04:29:58.262Z,19.90
2022-08-25T04:32:48.350Z,19.90
2022-08-25T04:35:37.794Z,19.90
2022-08-25T04:38:28.272Z,19.90
2022-08-25T04:41:20.658Z,20.00
2022-08-25T04:44:10.171Z,20.00
2022-08-25T04:47:02.032Z,20.00
2022-08-25T04:49:51.436Z,20.00
2022-08-25T04:52:40.853Z,20.10
2022-08-25T04:55:30.486Z,20.20
2022-08-25T04:58:19.856Z,20.20
2022-08-25T05:01:12.317Z,20.30
2022-08-25T05:04:06.381Z,20.30
2022-08-25T05:06:55.918Z,20.40
2022-08-25T05:09:45.400Z,20.50
2022-08-25T05:12:34.833Z,20.60
2022-08-25T05:15:42.556Z,20.70
2022-08-25T05:18:34.861Z,20.90
2022-08-25T05:21:28.802Z,21.10
2022-08-25T05:24:18.214Z,21.40
2022-08-25T05:27:07.767Z,21.70
2022-08-25T05:29:57.181Z,22.10
2022-08-25T05:32:46.694Z,22.50
2022-08-25T05:35:36.630Z,22.90
2022-08-25T05:38:27.665Z,23.30
2022-08-25T05:41:21.121Z,23.80
2022-08-25T05:44:10.541Z,24.40
2022-08-25T05:46:59.954Z,24.90
2022-08-25T05:49:49.599Z,25.50
2022-08-25T05:52:39.748Z,26.00
2022-08-25T05:55:30.564Z,26.60
2022-08-25T05:58:20.409Z,27.10
2022-08-25T06:01:28.705Z,27.60
2022-08-25T06:04:20.357Z,28.20
2022-08-25T06:07:10.017Z,28.80
2022-08-25T06:09:59.351Z,29.30
2022-08-25T06:12:50.190Z,29.80
2022-08-25T06:15:39.577Z,30.40
2022-08-25T06:18:29.410Z,30.80
2022-08-25T06:21:19.061Z,31.30
2022-08-25T06:24:14.712Z,31.80
2022-08-25T06:27:05.241Z,32.10
2022-08-25T06:29:56.168Z,32.60
2022-08-25T06:32:50.273Z,33.00
2022-08-25T06:35:43.478Z,33.30
2022-08-25T06:38:32.851Z,33.70
2022-08-25T06:41:22.505Z,34.10
2022-08-25T06:44:12.918Z,34.40
2022-08-25T06:47:03.787Z,34.70
2022-08-25T06:49:53.293Z,35.00
2022-08-25T06:52:43.161Z,35.30
2022-08-25T06:55:32.603Z,35.50
2022-08-25T06:58:22.066Z,35.70
2022-08-25T07:01:20.354Z,35.80
2022-08-25T07:04:13.204Z,35.80
2022-08-25T07:07:03.279Z,35.70
2022-08-25T07:09:52.680Z,35.70
2022-08-25T07:12:42.443Z,35.80
2022-08-25T07:15:31.966Z,35.80
2022-08-25T07:18:21.513Z,35.90
2022-08-25T07:21:12.962Z,36.00
2022-08-25T07:24:03.551Z,36.20
2022-08-25T07:26:53.136Z,36.50
2022-08-25T07:29:43.633Z,36.60
2022-08-25T07:32:32.983Z,36.80
2022-08-25T07:35:26.324Z,37.00
2022-08-25T07:38:20.688Z,37.20
2022-08-25T07:41:10.546Z,37.30
2022-08-25T07:44:00.065Z,37.40
2022-08-25T07:46:50.365Z,37.50
2022-08-25T07:49:40.500Z,37.60
2022-08-25T07:52:30.423Z,37.80
2022-08-25T07:55:21.830Z,37.90
2022-08-25T07:58:12.623Z,38.10
2022-08-25T08:01:02.209Z,38.40
2022-08-25T08:03:53.311Z,38.70
2022-08-25T08:06:43.702Z,39.00
2022-08-25T08:09:34.817Z,39.30
2022-08-25T08:12:25.762Z,39.60
2022-08-25T08:15:15.726Z,39.90
2022-08-25T08:18:07.232Z,40.20
2022-08-25T08:20:56.748Z,40.50
2022-08-25T08:23:46.183Z,40.70
2022-08-25T08:26:57.612Z,41.00
2022-08-25T09:33:29.248Z,39.20
2022-08-25T09:36:18.747Z,39.00
2022-08-25T09:39:09.915Z,39.00
2022-08-25T09:42:01.467Z,39.10
2022-08-25T09:44:50.865Z,39.30
2022-08-25T09:47:46.338Z,39.30
2022-08-25T09:50:37.542Z,39.40
2022-08-25T09:53:29.181Z,39.50
2022-08-25T09:56:26.359Z,39.50
2022-08-25T09:59:35.123Z,39.40
2022-08-25T10:02:29.534Z,39.20
2022-08-25T10:05:23.699Z,38.90
2022-08-25T10:08:26.087Z,38.60
2022-08-25T10:11:38.020Z,38.50
2022-08-25T10:14:35.240Z,38.50
2022-08-25T10:17:29.495Z,38.70
2022-08-25T10:20:23.177Z,38.80
2022-08-25T10:23:16.578Z,39.00
2022-08-25T10:26:15.935Z,39.20
2022-08-25T10:29:21.488Z,39.40
2022-08-25T10:32:20.021Z,39.60
2022-08-25T10:35:15.561Z,39.80
2022-08-25T10:38:36.044Z,40.10
2022-08-25T10:41:46.134Z,40.40
2022-08-25T10:45:01.873Z,40.60
2022-08-25T10:48:25.644Z,40.70
2022-08-25T10:51:51.047Z,40.60
2022-08-25T10:54:51.582Z,40.30
2022-08-25T10:57:56.251Z,40.20
2022-08-25T11:00:57.294Z,40.00
2022-08-25T11:03:52.397Z,40.00
2022-08-25T11:06:50.249Z,40.00
2022-08-25T11:09:49.446Z,40.00
2022-08-25T11:12:44.006Z,39.90
2022-08-25T11:15:59.956Z,39.70
2022-08-25T11:18:57.518Z,39.40
2022-08-25T11:21:55.216Z,39.10
2022-08-25T11:25:09.381Z,38.90
2022-08-25T11:28:10.467Z,38.60
2022-08-25T11:31:02.959Z,38.20
2022-08-25T11:33:56.014Z,37.90
2022-08-25T11:36:53.626Z,37.60
2022-08-25T11:40:17.905Z,37.30
2022-08-25T11:43:25.514Z,36.90
2022-08-25T11:46:49.611Z,36.60
2022-08-25T11:49:54.270Z,36.30
2022-08-25T11:52:54.082Z,36.00
2022-08-25T11:55:53.795Z,35.70
2022-08-25T11:58:50.171Z,35.50
2022-08-25T12:02:10.011Z,35.20
2022-08-25T12:04:59.774Z,35.00
2022-08-25T12:08:22.231Z,34.90
2022-08-25T12:11:14.341Z,34.70
2022-08-25T12:14:18.397Z,34.50
2022-08-25T12:17:20.806Z,34.30
2022-08-25T12:20:11.069Z,34.10
2022-08-25T12:23:01.469Z,33.90
2022-08-25T12:25:54.733Z,33.70
2022-08-25T12:29:07.473Z,33.60
2022-08-25T12:32:36.344Z,33.60
2022-08-25T12:35:32.047Z,33.60
2022-08-25T12:38:33.119Z,33.60
2022-08-25T12:41:30.870Z,33.50
2022-08-25T12:44:44.061Z,33.50
2022-08-25T12:47:33.898Z,33.50
2022-08-25T12:50:33.394Z,33.50
2022-08-25T12:53:34.942Z,33.60
2022-08-25T12:56:31.994Z,33.50
2022-08-25T12:59:36.849Z,33.50
2022-08-25T13:03:16.079Z,33.50
2022-08-25T13:06:20.161Z,33.40
2022-08-25T13:10:04.326Z,33.30
2022-08-25T13:13:02.549Z,33.30
2022-08-25T13:16:03.429Z,33.10
2022-08-25T13:18:57.794Z,33.10
2022-08-25T13:21:47.523Z,32.90
2022-08-25T13:24:43.723Z,32.80
2022-08-25T13:27:37.533Z,32.70
2022-08-25T13:30:30.699Z,32.70
2022-08-25T13:33:24.040Z,32.60
2022-08-25T13:36:36.058Z,32.50
2022-08-25T13:39:54.917Z,32.50
2022-08-25T13:42:38.176Z,32.40
2022-08-25T13:45:41.015Z,32.40
2022-08-25T13:48:40.269Z,32.40
2022-08-25T13:51:42.417Z,32.50
2022-08-25T13:54:41.101Z,32.40
2022-08-25T13:57:33.121Z,32.40
2022-08-25T14:00:35.943Z,32.40
2022-08-25T14:03:34.383Z,32.40
2022-08-25T14:06:28.964Z,32.40
2022-08-25T14:09:27.929Z,32.30
2022-08-25T14:12:38.116Z,32.30
2022-08-25T14:15:33.926Z,32.30
2022-08-25T14:18:29.529Z,32.30
2022-08-25T14:21:23.382Z,32.30
2022-08-25T14:24:17.594Z,32.30
2022-08-25T14:27:12.029Z,32.30
2022-08-25T14:30:01.753Z,32.30
2022-08-25T14:32:51.823Z,32.20
2022-08-25T14:35:50.473Z,32.20
2022-08-25T14:38:41.186Z,32.20
2022-08-25T14:41:37.056Z,32.10
2022-08-25T14:44:27.370Z,32.10
2022-08-25T14:47:16.857Z,32.10
2022-08-25T14:50:07.963Z,32.10
2022-08-25T14:53:01.908Z,32.10
2022-08-25T14:55:54.146Z,32.10
2022-08-25T14:58:54.146Z,32.10
2022-08-25T15:01:44.319Z,32.10
2022-08-25T15:07:42.449Z,32.00
2022-08-25T15:10:31.874Z,32.00
2022-08-25T15:13:22.629Z,31.90
2022-08-25T15:16:17.352Z,31.80
2022-08-25T15:19:14.610Z,31.70
2022-08-25T15:22:05.172Z,31.60
2022-08-25T15:24:56.081Z,31.50
2022-08-25T15:27:46.044Z,31.50
2022-08-25T15:30:36.090Z,31.40
2022-08-25T15:33:26.868Z,31.30
2022-08-25T15:36:21.069Z,31.30
2022-08-25T15:39:14.059Z,31.30
2022-08-25T15:42:03.971Z,31.30
2022-08-25T15:44:53.889Z,31.30
2022-08-25T15:47:43.333Z,31.30
2022-08-25T15:50:34.309Z,31.30
2022-08-25T15:53:26.174Z,31.30
2022-08-25T15:56:26.523Z,31.40
2022-08-25T15:59:17.091Z,31.50
2022-08-25T16:02:06.659Z,31.50
2022-08-25T16:05:06.064Z,31.60
2022-08-25T16:07:57.361Z,31.60
2022-08-25T16:10:47.019Z,31.70
2022-08-25T16:13:36.522Z,31.50
2022-08-25T16:16:29.270Z,31.50
2022-08-25T16:19:18.757Z,31.40
2022-08-25T16:22:08.855Z,31.30
2022-08-25T16:25:02.942Z,31.20
2022-08-25T16:27:55.544Z,31.10
2022-08-25T16:30:53.308Z,31.00
2022-08-25T16:33:42.930Z,31.00
2022-08-25T16:36:32.934Z,30.90
2022-08-25T16:39:23.843Z,30.80
2022-08-25T16:42:15.174Z,30.70
2022-08-25T16:45:05.376Z,30.70
2022-08-25T16:47:54.905Z,30.60
2022-08-25T16:50:44.298Z,30.50
2022-08-25T16:53:52.744Z,30.50
2022-08-25T16:56:44.341Z,30.40
2022-08-25T16:59:35.108Z,30.30
2022-08-25T17:02:24.488Z,30.30
2022-08-25T17:05:14.669Z,30.20
2022-08-25T17:08:22.542Z,30.20
2022-08-25T17:11:15.522Z,30.10
2022-08-25T17:14:11.121Z,30.00
2022-08-25T17:17:02.539Z,30.00
2022-08-25T17:19:53.636Z,29.90
2022-08-25T17:22:44.513Z,29.80
2022-08-25T17:25:36.483Z,29.70
2022-08-25T17:28:31.466Z,29.70
2022-08-25T17:31:22.334Z,29.60
2022-08-25T17:34:16.393Z,29.60
2022-08-25T17:37:06.824Z,29.50
2022-08-25T17:40:02.497Z,29.40
2022-08-25T17:42:52.770Z,29.30
2022-08-25T17:45:42.254Z,29.30
2022-08-25T17:48:33.090Z,29.20
2022-08-25T17:51:24.824Z,29.10
2022-08-25T17:54:15.743Z,29.00
2022-08-25T17:57:05.641Z,28.90
2022-08-25T17:59:54.987Z,28.80
2022-08-25T18:02:44.517Z,28.80
2022-08-25T18:05:35.693Z,28.70
2022-08-25T18:08:32.101Z,28.60
2022-08-25T18:11:26.745Z,28.50
2022-08-25T18:14:21.218Z,28.40
2022-08-25T18:17:14.141Z,28.30
2022-08-25T18:20:14.648Z,28.30
2022-08-25T18:23:09.008Z,28.20
2022-08-25T18:26:01.267Z,28.20
2022-08-25T18:28:50.711Z,28.10
2022-08-25T18:31:40.820Z,28.00
2022-08-25T18:34:31.728Z,28.00
2022-08-25T18:37:38.525Z,27.90
2022-08-25T18:40:28.599Z,27.80
2022-08-25T18:43:19.505Z,27.80
2022-08-25T18:46:09.177Z,27.70
2022-08-25T18:49:00.694Z,27.60
2022-08-25T18:51:50.185Z,27.60
2022-08-25T18:54:40.018Z,27.50
2022-08-25T18:57:29.976Z,27.50
2022-08-25T19:00:24.189Z,27.40
2022-08-25T19:03:16.843Z,27.40
2022-08-25T19:06:07.231Z,27.30
2022-08-25T19:08:56.856Z,27.20
2022-08-25T19:11:47.492Z,27.20
2022-08-25T19:14:37.168Z,27.20
2022-08-25T19:17:28.330Z,27.10
2022-08-25T19:20:29.606Z,27.10
2022-08-25T19:23:19.506Z,27.00
2022-08-25T19:26:17.133Z,26.90
2022-08-25T19:29:11.825Z,26.90
2022-08-25T19:32:02.192Z,26.80
2022-08-25T19:34:54.905Z,26.80
2022-08-25T19:37:45.131Z,26.70
2022-08-25T19:40:35.531Z,26.70
2022-08-25T19:43:25.423Z,26.60
2022-08-25T19:46:16.510Z,26.60
2022-08-25T19:49:13.807Z,26.50
2022-08-25T19:52:10.576Z,26.50
2022-08-25T19:55:03.014Z,26.50
2022-08-25T19:57:54.111Z,26.40
2022-08-25T20:00:44.741Z,26.40
2022-08-25T20:03:36.699Z,26.30
2022-08-25T20:06:27.620Z,26.30
2022-08-25T20:09:35.994Z,26.20
2022-08-25T20:12:29.641Z,26.20
2022-08-25T20:15:19.219Z,26.10
2022-08-25T20:18:10.205Z,26.10
2022-08-25T20:20:59.683Z,26.00
2022-08-25T20:24:06.815Z,26.00
2022-08-25T20:26:57.613Z,26.00
2022-08-25T20:29:47.682Z,25.90
2022-08-25T20:32:37.333Z,25.90
2022-08-25T20:35:29.261Z,25.90
2022-08-25T20:38:19.118Z,25.80
2022-08-25T20:41:10.950Z,25.80
2022-08-25T20:44:02.337Z,25.70
2022-08-25T20:46:52.200Z,25.70
2022-08-25T20:49:44.925Z,25.70
2022-08-25T20:52:34.804Z,25.60
2022-08-25T20:55:24.629Z,25.60
2022-08-25T20:58:16.979Z,25.50
2022-08-25T21:01:10.742Z,25.50
2022-08-25T21:04:01.381Z,25.50
2022-08-25T21:06:54.916Z,25.50
2022-08-25T21:09:44.528Z,25.40
2022-08-25T21:12:34.795Z,25.40
2022-08-25T21:15:25.211Z,25.40
2022-08-25T21:18:16.032Z,25.40
2022-08-25T21:21:11.375Z,25.40
2022-08-25T21:24:01.571Z,25.30
2022-08-25T21:26:55.910Z,25.30
2022-08-25T21:29:54.974Z,25.30
2022-08-25T21:32:52.983Z,25.30
2022-08-25T21:35:46.871Z,25.30
2022-08-25T21:38:36.768Z,25.30
2022-08-25T21:41:32.189Z,25.20
2022-08-25T21:44:22.627Z,25.20
2022-08-25T21:47:12.060Z,25.20
2022-08-25T21:50:01.600Z,25.10
2022-08-25T21:52:54.614Z,25.10
2022-08-25T21:55:45.211Z,25.10
2022-08-25T21:58:36.218Z,25.00
2022-08-25T22:01:25.906Z,25.00
2022-08-25T22:04:16.597Z,25.00
2022-08-25T22:07:06.774Z,24.90
2022-08-25T22:09:58.169Z,24.90
2022-08-25T22:12:49.186Z,24.90
2022-08-25T22:15:38.713Z,24.90
2022-08-25T22:18:29.935Z,24.90
2022-08-25T22:21:22.089Z,24.80
2022-08-25T22:24:12.114Z,24.80
2022-08-25T22:27:03.055Z,24.80
2022-08-25T22:29:53.200Z,24.80
2022-08-25T22:32:42.670Z,24.70
2022-08-25T22:35:36.942Z,24.70
2022-08-25T22:38:29.221Z,24.60
2022-08-25T22:41:21.542Z,24.60
2022-08-25T22:44:12.609Z,24.60
2022-08-25T22:47:02.081Z,24.50
2022-08-25T22:49:52.390Z,24.50
2022-08-25T22:52:42.428Z,24.50
2022-08-25T22:55:32.754Z,24.40
2022-08-25T22:58:22.469Z,24.40
2022-08-25T23:01:16.621Z,24.40
2022-08-25T23:04:07.680Z,24.40
2022-08-25T23:06:57.432Z,24.30
2022-08-25T23:09:46.823Z,24.30
2022-08-25T23:12:37.919Z,24.20
2022-08-25T23:15:27.595Z,24.20
2022-08-25T23:18:19.197Z,24.20
2022-08-25T23:21:27.253Z,24.20
2022-08-25T23:24:30.157Z,24.10
2022-08-25T23:27:22.492Z,24.10
2022-08-25T23:30:14.111Z,24.10
2022-08-25T23:33:03.700Z,24.00
2022-08-25T23:36:01.047Z,24.00
2022-08-25T23:38:51.811Z,24.00
2022-08-25T23:41:41.645Z,23.90
2022-08-25T23:44:31.123Z,23.90
2022-08-25T23:47:20.542Z,23.90
2022-08-25T23:50:10.911Z,23.90
2022-08-25T23:53:01.664Z,23.80
2022-08-25T23:55:53.927Z,23.80
2022-08-25T23:58:43.922Z,23.80
